Time;durP1;ratioP1;P1;durP2;ratioP2;P2;SDS_P1;SDS_P2;PMS_P1;PMS_P2;Temp;Humidity;BMP_temperature;BMP_pressure;BME280_temperature;BME280_humidity;BME280_pressure;Samples;Min_cycle;Max_cycle;Signal;HPM_P1;HPM_P2
2021/03/29 00:00:37;;;;;;;;;;;;;;;;;;5030182;28;957;-60
2021/03/29 00:03:03;;;;;;;;;;;;;;;;;;5029936;28;800;-61
2021/03/29 00:05:33;;;;;;;;;;;;;;;;;;5027529;28;1027;-61
2021/03/29 00:08:02;;;;;;;;;;;;;;;;;;5030358;28;1074;-61
2021/03/29 00:10:29;;;;;;;;;;;;;;;;;;5030089;28;823;-61
2021/03/29 00:12:55;;;;;;;;;;;;;;;;;;5020686;28;1463;-61
2021/03/29 00:15:23;;;;;;;;;;;;;;;;;;5010126;28;1922;-61
2021/03/29 00:17:48;;;;;;;;;;;;;;;;;;5009837;28;930;-62
2021/03/29 00:20:16;;;;;;;;;;;;;;;;;;5010544;28;823;-60
2021/03/29 00:22:42;;;;;;;;;;;;;;;;;;5010279;28;903;-61
2021/03/29 00:25:10;;;;;;;;;;;;;;;;;;5010208;28;910;-60
2021/03/29 00:27:36;;;;;;;;;;;;;;;;;;5010202;28;978;-63
2021/03/29 00:30:03;;;;;;;;;;;;;;;;;;5010433;28;820;-61
2021/03/29 00:32:28;;;;;;;;;;;;;;;;;;5009629;28;1686;-60
2021/03/29 00:34:54;;;;;;;;;;;;;;;;;;5009353;28;1965;-60
2021/03/29 00:37:19;;;;;;;;;;;;;;;;;;5010248;28;890;-61
2021/03/29 00:39:46;;;;;;;;;;;;;;;;;;5010953;28;951;-60
2021/03/29 00:42:11;;;;;;;;;;;;;;;;;;5008879;28;1353;-60
2021/03/29 00:44:37;;;;;;;;;;;;;;;;;;5009213;28;847;-61
2021/03/29 00:47:02;;;;;;;;;;;;;;;;;;5009717;28;815;-60
2021/03/29 00:49:28;;;;;;;;;;;;;;;;;;5009215;28;1172;-60
2021/03/29 00:51:54;;;;;;;;;;;;;;;;;;5028398;28;1436;-60
2021/03/29 00:54:20;;;;;;;;;;;;;;;;;;5032473;28;1102;-61
2021/03/29 00:56:46;;;;;;;;;;;;;;;;;;5030237;28;1886;-60
2021/03/29 00:59:11;;;;;;;;;;;;;;;;;;5028915;28;972;-60
2021/03/29 01:01:40;;;;;;;;;;;;;;;;;;5028910;28;828;-60
2021/03/29 01:04:06;;;;;;;;;;;;;;;;;;5029419;28;824;-60
2021/03/29 01:06:34;;;;;;;;;;;;;;;;;;5011652;28;1670;-61
2021/03/29 01:09:01;;;;;;;;;;;;;;;;;;5008794;28;831;-61
2021/03/29 01:11:30;;;;;;;;;;;;;;;;;;5009277;28;1350;-60
2021/03/29 01:13:57;;;;;;;;;;;;;;;;;;5009432;28;927;-60
2021/03/29 01:16:24;;;;;;;;;;;;;;;;;;5009072;28;1961;-62
2021/03/29 01:18:52;;;;;;;;;;;;;;;;;;5009251;28;815;-61
2021/03/29 01:21:28;;;;;;;;;;;;;;;;;;5009780;28;937;-62
2021/03/29 01:23:55;;;;;;;;;;;;;;;;;;5008690;28;855;-62
2021/03/29 01:26:23;;;;;;;;;;;;;;;;;;5008977;28;969;-63
2021/03/29 01:28:49;;;;;;;;;;;;;;;;;;5009907;28;823;-61
2021/03/29 01:31:14;;;;;;;;;;;;;;;;;;5009736;28;807;-61
2021/03/29 01:33:40;;;;;;;;;;;;;;;;;;5008909;28;898;-63
2021/03/29 01:36:06;;;;;;;;;;;;;;;;;;5009033;28;1959;-63
2021/03/29 01:38:33;;;;;;;;;;;;;;;;;;5008804;28;886;-63
2021/03/29 01:40:58;;;;;;;;;;;;;;;;;;5008892;28;843;-63
2021/03/29 01:43:25;;;;;;;;;;;;;;;;;;5008690;28;1357;-62
2021/03/29 01:45:51;;;;;;;;;;;;;;;;;;5009119;28;836;-64
2021/03/29 01:48:17;;;;;;;;;;;;;;;;;;5025112;28;836;-63
2021/03/29 01:50:43;;;;;;;;;;;;;;;;;;5008736;28;890;-60
2021/03/29 01:53:10;;;;;;;;;;;;;;;;;;5012874;28;1162;-60
2021/03/29 01:55:36;;;;;;;;;;;;;;;;;;5029452;28;1890;-59
2021/03/29 01:58:02;;;;;;;;;;;;;;;;;;5027607;28;836;-60
2021/03/29 02:00:33;;;;;;;;;;;;;;;;;;5027781;28;1108;-60
2021/03/29 02:03:04;;;;;;;;;;;;;;;;;;5024071;28;1111;-60
2021/03/29 02:05:29;;;;;;;;;;;;;;;;;;5027716;28;907;-60
2021/03/29 02:07:55;;;;;;;;;;;;;;;;;;5027577;28;878;-61
2021/03/29 02:10:22;;;;;;;;;;;;;;;;;;5027546;28;1160;-61
2021/03/29 02:12:47;;;;;;;;;;;;;;;;;;5028135;28;887;-60
2021/03/29 02:15:14;;;;;;;;;;;;;;;;;;5027314;28;1979;-61
2021/03/29 02:17:40;;;;;;;;;;;;;;;;;;5027849;28;914;-61
2021/03/29 02:20:08;;;;;;;;;;;;;;;;;;5042949;28;942;-60
2021/03/29 02:22:33;;;;;;;;;;;;;;;;;;5027540;28;902;-61
2021/03/29 02:24:58;;;;;;;;;;;;;;;;;;5027780;28;927;-61
2021/03/29 02:27:24;;;;;;;;;;;;;;;;;;5027809;28;898;-62
2021/03/29 02:29:51;;;;;;;;;;;;;;;;;;5027583;28;843;-62
2021/03/29 02:32:16;;;;;;;;;;;;;;;;;;5028309;28;867;-62
2021/03/29 02:34:42;;;;;;;;;;;;;;;;;;5027835;28;1885;-61
2021/03/29 02:37:07;;;;;;;;;;;;;;;;;;5027111;28;740;-60
2021/03/29 02:39:32;;;;;;;;;;;;;;;;;;5027159;28;958;-60
2021/03/29 02:41:58;;;;;;;;;;;;;;;;;;5021694;28;1184;-62
2021/03/29 02:44:23;;;;;;;;;;;;;;;;;;5041585;28;1052;-61
2021/03/29 02:46:49;;;;;;;;;;;;;;;;;;5027172;28;824;-62
2021/03/29 02:49:16;;;;;;;;;;;;;;;;;;5027306;28;887;-61
2021/03/29 02:51:42;;;;;;;;;;;;;;;;;;5027116;28;931;-61
2021/03/29 02:54:08;;;;;;;;;;;;;;;;;;5027039;28;1083;-62
2021/03/29 02:56:42;;;;;;;;;;;;;;;;;;5028216;28;1898;-62
2021/03/29 02:59:10;;;;;;;;;;;;;;;;;;5026173;28;890;-60
2021/03/29 03:01:37;;;;;;;;;;;;;;;;;;5027314;28;864;-60
2021/03/29 03:04:02;;;;;;;;;;;;;;;;;;5027083;28;919;-60
2021/03/29 03:06:28;;;;;;;;;;;;;;;;;;5026979;28;807;-60
2021/03/29 03:08:54;;;;;;;;;;;;;;;;;;5027533;28;832;-61
2021/03/29 03:11:20;;;;;;;;;;;;;;;;;;5027323;28;816;-60
2021/03/29 03:13:46;;;;;;;;;;;;;;;;;;5027744;28;792;-61
2021/03/29 03:16:12;;;;;;;;;;;;;;;;;;5031334;28;1902;-61
2021/03/29 03:18:38;;;;;;;;;;;;;;;;;;5031220;28;890;-61
2021/03/29 03:21:04;;;;;;;;;;;;;;;;;;5030817;28;835;-61
2021/03/29 03:23:29;;;;;;;;;;;;;;;;;;5031227;28;827;-60
2021/03/29 03:25:55;;;;;;;;;;;;;;;;;;5031208;28;855;-62
2021/03/29 03:28:21;;;;;;;;;;;;;;;;;;5029828;28;898;-61
2021/03/29 03:30:55;;;;;;;;;;;;;;;;;;5031454;28;867;-63
2021/03/29 03:33:21;;;;;;;;;;;;;;;;;;5031342;28;867;-62
2021/03/29 03:35:47;;;;;;;;;;;;;;;;;;5031643;28;1894;-61
2021/03/29 03:38:12;;;;;;;;;;;;;;;;;;5030707;28;816;-60
2021/03/29 03:40:39;;;;;;;;;;;;;;;;;;5030814;28;835;-61
2021/03/29 03:43:06;;;;;;;;;;;;;;;;;;5012104;28;975;-63
2021/03/29 03:45:51;;;;;;;;;;;;;;;;;;5030226;28;898;-62
2021/03/29 03:48:18;;;;;;;;;;;;;;;;;;5030457;28;1347;-62
2021/03/29 03:50:45;;;;;;;;;;;;;;;;;;5030264;28;879;-62
2021/03/29 03:53:11;;;;;;;;;;;;;;;;;;5025609;28;1024;-62
2021/03/29 03:55:37;;;;;;;;;;;;;;;;;;5012055;28;1918;-61
2021/03/29 03:58:02;;;;;;;;;;;;;;;;;;5011041;28;1015;-63
2021/03/29 04:00:28;;;;;;;;;;;;;;;;;;5023884;28;960;-62
2021/03/29 04:02:54;;;;;;;;;;;;;;;;;;5029823;28;816;-62
2021/03/29 04:05:22;;;;;;;;;;;;;;;;;;5030515;28;835;-61
2021/03/29 04:07:49;;;;;;;;;;;;;;;;;;5030749;28;690;-61
2021/03/29 04:10:17;;;;;;;;;;;;;;;;;;5028634;28;1248;-61
2021/03/29 04:12:45;;;;;;;;;;;;;;;;;;5029923;28;815;-62
2021/03/29 04:15:10;;;;;;;;;;;;;;;;;;5030383;28;1906;-61
2021/03/29 04:17:36;;;;;;;;;;;;;;;;;;5029570;28;880;-62
2021/03/29 04:20:01;;;;;;;;;;;;;;;;;;5028994;28;800;-62
2021/03/29 04:22:27;;;;;;;;;;;;;;;;;;5030015;28;816;-63
2021/03/29 04:24:52;;;;;;;;;;;;;;;;;;5030222;28;852;-62
2021/03/29 04:27:17;;;;;;;;;;;;;;;;;;5029879;28;954;-63
2021/03/29 04:29:43;;;;;;;;;;;;;;;;;;5029511;28;887;-63
2021/03/29 04:32:09;;;;;;;;;;;;;;;;;;5030145;28;796;-62
2021/03/29 04:34:34;;;;;;;;;;;;;;;;;;5012057;28;935;-63
2021/03/29 04:37:00;;;;;;;;;;;;;;;;;;5029340;28;1882;-62
2021/03/29 04:39:25;;;;;;;;;;;;;;;;;;5029797;28;895;-63
2021/03/29 04:41:50;;;;;;;;;;;;;;;;;;5029584;28;828;-62
2021/03/29 04:44:16;;;;;;;;;;;;;;;;;;5030409;28;824;-64
2021/03/29 04:46:41;;;;;;;;;;;;;;;;;;5029144;28;901;-63
2021/03/29 04:49:06;;;;;;;;;;;;;;;;;;5029798;28;816;-60
2021/03/29 04:51:32;;;;;;;;;;;;;;;;;;5029190;28;805;-60
2021/03/29 04:53:57;;;;;;;;;;;;;;;;;;5028773;28;1151;-60
2021/03/29 04:56:23;;;;;;;;;;;;;;;;;;5031398;28;1894;-60
2021/03/29 04:58:48;;;;;;;;;;;;;;;;;;5012606;28;1184;-60
2021/03/29 05:01:13;;;;;;;;;;;;;;;;;;5028757;28;904;-60
2021/03/29 05:03:39;;;;;;;;;;;;;;;;;;5028948;28;855;-60
2021/03/29 05:06:04;;;;;;;;;;;;;;;;;;5029264;28;788;-60
2021/03/29 05:08:29;;;;;;;;;;;;;;;;;;5028727;28;799;-61
2021/03/29 05:10:55;;;;;;;;;;;;;;;;;;5028721;28;807;-60
2021/03/29 05:13:20;;;;;;;;;;;;;;;;;;5029052;28;839;-61
2021/03/29 05:15:46;;;;;;;;;;;;;;;;;;5029653;28;1975;-60
2021/03/29 05:18:12;;;;;;;;;;;;;;;;;;5028930;28;847;-60
2021/03/29 05:20:38;;;;;;;;;;;;;;;;;;5029022;28;858;-60
2021/03/29 05:23:03;;;;;;;;;;;;;;;;;;5029153;28;840;-60
2021/03/29 05:25:29;;;;;;;;;;;;;;;;;;5028939;28;867;-60
2021/03/29 05:27:54;;;;;;;;;;;;;;;;;;5028891;28;942;-60
2021/03/29 05:30:20;;;;;;;;;;;;;;;;;;5029759;28;807;-61
2021/03/29 05:32:45;;;;;;;;;;;;;;;;;;5028818;28;836;-60
2021/03/29 05:35:11;;;;;;;;;;;;;;;;;;5028251;28;1894;-60
2021/03/29 05:37:36;;;;;;;;;;;;;;;;;;5027497;28;875;-59
2021/03/29 05:40:02;;;;;;;;;;;;;;;;;;5028035;28;856;-60
2021/03/29 05:42:29;;;;;;;;;;;;;;;;;;5028687;28;986;-60
2021/03/29 05:45:07;;;;;;;;;;;;;;;;;;5028411;28;828;-60
2021/03/29 05:47:33;;;;;;;;;;;;;;;;;;5028602;28;828;-59
2021/03/29 05:49:59;;;;;;;;;;;;;;;;;;5028195;28;812;-59
2021/03/29 05:52:25;;;;;;;;;;;;;;;;;;5027954;28;867;-60
2021/03/29 05:54:50;;;;;;;;;;;;;;;;;;5010185;28;1890;-60
2021/03/29 05:57:18;;;;;;;;;;;;;;;;;;5009135;28;1282;-59
2021/03/29 05:59:43;;;;;;;;;;;;;;;;;;5015366;28;1250;-60
2021/03/29 06:02:09;;;;;;;;;;;;;;;;;;5026059;28;1289;-63
2021/03/29 06:04:42;;;;;;;;;;;;;;;;;;5028206;28;1155;-61
2021/03/29 06:07:21;;;;;;;;;;;;;;;;;;5027748;28;804;-60
2021/03/29 06:09:47;;;;;;;;;;;;;;;;;;5028366;28;910;-61
2021/03/29 06:12:14;;;;;;;;;;;;;;;;;;5028404;28;942;-60
2021/03/29 06:14:39;;;;;;;;;;;;;;;;;;5027578;28;1337;-59
2021/03/29 06:17:06;;;;;;;;;;;;;;;;;;5027465;28;1923;-60
2021/03/29 06:19:51;;;;;;;;;;;;;;;;;;5027800;28;844;-60
2021/03/29 06:22:17;;;;;;;;;;;;;;;;;;5028377;28;851;-62
2021/03/29 06:24:54;;;;;;;;;;;;;;;;;;5027404;28;868;-62
2021/03/29 06:27:22;;;;;;;;;;;;;;;;;;5027580;28;1372;-61
2021/03/29 06:29:47;;;;;;;;;;;;;;;;;;5028116;28;832;-63
2021/03/29 06:32:19;;;;;;;;;;;;;;;;;;5029607;28;1192;-61
2021/03/29 06:34:45;;;;;;;;;;;;;;;;;;5025582;28;1392;-61
2021/03/29 06:37:11;;;;;;;;;;;;;;;;;;5024012;28;1369;-60
2021/03/29 06:39:41;;;;;;;;;;;;;;;;;;5026470;28;871;-60
2021/03/29 06:42:06;;;;;;;;;;;;;;;;;;5026506;28;895;-60
2021/03/29 06:44:33;;;;;;;;;;;;;;;;;;5026718;28;895;-61
2021/03/29 06:47:04;;;;;;;;;;;;;;;;;;5026758;28;1127;-60
2021/03/29 06:50:02;;;;;;;;;;;;;;;;;;5041208;28;1082;-60
2021/03/29 06:52:29;;;;;;;;;;;;;;;;;;5036390;28;1564;-61
2021/03/29 06:55:15;;;;;;;;;;;;;;;;;;5026387;28;1922;-60
2021/03/29 06:57:40;;;;;;;;;;;;;;;;;;5029506;28;1870;-61
2021/03/29 07:00:06;;;;;;;;;;;;;;;;;;5025037;28;1023;-63
2021/03/29 07:02:36;;;;;;;;;;;;;;;;;;5025621;28;1277;-63
2021/03/29 07:05:01;;;;;;;;;;;;;;;;;;5004903;28;1127;-61
2021/03/29 07:07:27;;;;;;;;;;;;;;;;;;5009932;28;1180;-61
2021/03/29 07:09:53;;;;;;;;;;;;;;;;;;5017851;28;1156;-63
2021/03/29 07:12:19;;;;;;;;;;;;;;;;;;5019968;28;1199;-62
2021/03/29 07:14:44;;;;;;;;;;;;;;;;;;5015981;28;1155;-62
2021/03/29 07:17:10;;;;;;;;;;;;;;;;;;5007096;28;1898;-61
2021/03/29 07:19:36;;;;;;;;;;;;;;;;;;5007435;28;1577;-61
2021/03/29 07:22:02;;;;;;;;;;;;;;;;;;5019302;28;803;-63
2021/03/29 07:24:27;;;;;;;;;;;;;;;;;;5006731;28;840;-63
2021/03/29 07:26:57;;;;;;;;;;;;;;;;;;5007053;28;824;-63
2021/03/29 07:29:27;;;;;;;;;;;;;;;;;;5006184;28;899;-62
2021/03/29 07:31:53;;;;;;;;;;;;;;;;;;5006961;28;835;-63
2021/03/29 07:34:39;;;;;;;;;;;;;;;;;;5007454;28;808;-63
2021/03/29 07:37:24;;;;;;;;;;;;;;;;;;4999781;28;1887;-62
2021/03/29 07:39:49;;;;;;;;;;;;;;;;;;5027403;28;895;-63
2021/03/29 07:42:24;;;;;;;;;;;;;;;;;;5026687;28;875;-63
2021/03/29 07:44:53;;;;;;;;;;;;;;;;;;5028112;28;840;-64
2021/03/29 07:47:36;;;;;;;;;;;;;;;;;;5014157;28;1175;-64
2021/03/29 07:50:03;;;;;;;;;;;;;;;;;;5007236;28;832;-61
2021/03/29 07:52:30;;;;;;;;;;;;;;;;;;5007361;28;966;-60
2021/03/29 07:54:56;;;;;;;;;;;;;;;;;;5007417;28;1918;-60
2021/03/29 07:57:40;;;;;;;;;;;;;;;;;;5006612;28;863;-63
2021/03/29 08:00:06;;;;;;;;;;;;;;;;;;5018899;28;1050;-60
2021/03/29 08:02:32;;;;;;;;;;;;;;;;;;5029486;28;994;-60
2021/03/29 08:05:05;;;;;;;;;;;;;;;;;;5027719;28;2411;-60
2021/03/29 08:07:39;;;;;;;;;;;;;;;;;;5010659;28;839;-60
2021/03/29 08:10:10;;;;;;;;;;;;;;;;;;5010182;28;886;-60
2021/03/29 08:12:36;;;;;;;;;;;;;;;;;;5010226;28;847;-59
2021/03/29 08:15:03;;;;;;;;;;;;;;;;;;5009899;28;1933;-59
2021/03/29 08:17:54;;;;;;;;;;;;;;;;;;5010907;28;891;-61
2021/03/29 08:20:33;;;;;;;;;;;;;;;;;;5008508;28;1042;-60
2021/03/29 08:23:26;;;;;;;;;;;;;;;;;;5010188;28;667;-60
2021/03/29 08:26:11;;;;;;;;;;;;;;;;;;4994591;28;1344;-60
2021/03/29 08:28:55;;;;;;;;;;;;;;;;;;5024422;28;768;-60
2021/03/29 08:31:38;;;;;;;;;;;;;;;;;;5009591;28;883;-62
2021/03/29 08:34:05;;;;;;;;;;;;;;;;;;5057308;28;1239;-60
2021/03/29 08:36:30;;;;;;;;;;;;;;;;;;5048594;28;2026;-64
2021/03/29 08:38:56;;;;;;;;;;;;;;;;;;5041772;28;2196;-60
2021/03/29 08:41:22;;;;;;;;;;;;;;;;;;5045414;28;1167;-61
2021/03/29 08:43:47;;;;;;;;;;;;;;;;;;5030192;28;859;-60
2021/03/29 08:46:13;;;;;;;;;;;;;;;;;;5029347;28;914;-60
2021/03/29 08:48:43;;;;;;;;;;;;;;;;;;5029613;28;925;-60
2021/03/29 08:51:18;;;;;;;;;;;;;;;;;;5029635;28;902;-60
2021/03/29 08:53:44;;;;;;;;;;;;;;;;;;5029114;28;1158;-63
2021/03/29 08:56:09;;;;;;;;;;;;;;;;;;5028768;28;1967;-60
2021/03/29 08:58:35;;;;;;;;;;;;;;;;;;5028966;28;903;-60
2021/03/29 09:01:01;;;;;;;;;;;;;;;;;;5028280;28;801;-60
2021/03/29 09:03:26;;;;;;;;;;;;;;;;;;5028874;28;836;-60
2021/03/29 09:05:51;;;;;;;;;;;;;;;;;;5028875;28;894;-60
2021/03/29 09:08:18;;;;;;;;;;;;;;;;;;5029738;28;907;-60
2021/03/29 09:10:44;;;;;;;;;;;;;;;;;;5028634;28;796;-60
2021/03/29 09:13:11;;;;;;;;;;;;;;;;;;5027742;28;883;-60
2021/03/29 09:15:40;;;;;;;;;;;;;;;;;;5011022;28;1902;-59
2021/03/29 09:18:13;;;;;;;;;;;;;;;;;;5020719;28;1246;-60
2021/03/29 09:20:45;;;;;;;;;;;;;;;;;;5009210;28;823;-60
2021/03/29 09:23:13;;;;;;;;;;;;;;;;;;5008418;28;887;-59
2021/03/29 09:25:41;;;;;;;;;;;;;;;;;;5015949;28;1766;-64
2021/03/29 09:28:41;;;;;;;;;;;;;;;;;;5021284;28;1148;-59
2021/03/29 09:31:23;;;;;;;;;;;;;;;;;;5026213;28;1758;-59
2021/03/29 09:33:49;;;;;;;;;;;;;;;;;;5027876;28;2025;-59
2021/03/29 09:36:16;;;;;;;;;;;;;;;;;;5027695;28;1893;-59
2021/03/29 09:38:43;;;;;;;;;;;;;;;;;;5027821;28;859;-59
2021/03/29 09:41:15;;;;;;;;;;;;;;;;;;5027743;28;832;-59
2021/03/29 09:43:41;;;;;;;;;;;;;;;;;;5028056;28;839;-59
2021/03/29 09:46:06;;;;;;;;;;;;;;;;;;5028001;28;827;-59
2021/03/29 09:48:32;;;;;;;;;;;;;;;;;;5024940;28;1184;-60
2021/03/29 09:50:58;;;;;;;;;;;;;;;;;;5016566;28;1274;-59
2021/03/29 09:53:32;;;;;;;;;;;;;;;;;;5027490;28;1138;-58
2021/03/29 09:55:58;;;;;;;;;;;;;;;;;;5027721;28;1898;-59
2021/03/29 09:58:25;;;;;;;;;;;;;;;;;;5043087;28;1320;-59
2021/03/29 10:00:52;;;;;;;;;;;;;;;;;;5027638;28;817;-60
2021/03/29 10:03:18;;;;;;;;;;;;;;;;;;5026403;28;1162;-59
2021/03/29 10:05:45;;;;;;;;;;;;;;;;;;5016990;28;1146;-59
2021/03/29 10:08:10;;;;;;;;;;;;;;;;;;5023107;28;1076;-60
2021/03/29 10:10:36;;;;;;;;;;;;;;;;;;5021551;28;1104;-60
2021/03/29 10:13:05;;;;;;;;;;;;;;;;;;5017681;28;1213;-60
2021/03/29 10:15:31;;;;;;;;;;;;;;;;;;5013584;28;1906;-60
2021/03/29 10:18:13;;;;;;;;;;;;;;;;;;5008101;28;783;-59
2021/03/29 10:20:40;;;;;;;;;;;;;;;;;;5007490;28;966;-60
2021/03/29 10:23:25;;;;;;;;;;;;;;;;;;5008049;28;859;-60
2021/03/29 10:26:09;;;;;;;;;;;;;;;;;;5009303;28;1245;-59
2021/03/29 10:28:35;;;;;;;;;;;;;;;;;;5006936;28;1266;-59
2021/03/29 10:31:00;;;;;;;;;;;;;;;;;;5006471;28;828;-59
2021/03/29 10:33:25;;;;;;;;;;;;;;;;;;5006868;28;1179;-60
2021/03/29 10:35:51;;;;;;;;;;;;;;;;;;5007017;28;1976;-60
2021/03/29 10:38:16;;;;;;;;;;;;;;;;;;5027691;28;816;-60
2021/03/29 10:40:42;;;;;;;;;;;;;;;;;;5024921;28;1195;-60
2021/03/29 10:43:09;;;;;;;;;;;;;;;;;;5025749;28;1078;-60
2021/03/29 10:45:34;;;;;;;;;;;;;;;;;;5026147;28;1171;-60
2021/03/29 10:48:00;;;;;;;;;;;;;;;;;;5027115;28;831;-59
2021/03/29 10:50:25;;;;;;;;;;;;;;;;;;5025659;28;1222;-59
2021/03/29 10:52:50;;;;;;;;;;;;;;;;;;5026695;28;1068;-60
2021/03/29 10:55:16;;;;;;;;;;;;;;;;;;5021695;28;1976;-59
2021/03/29 10:57:42;;;;;;;;;;;;;;;;;;5015057;28;1147;-59
2021/03/29 11:00:07;;;;;;;;;;;;;;;;;;5016569;28;1055;-59
2021/03/29 11:02:35;;;;;;;;;;;;;;;;;;5024765;28;1199;-59
2021/03/29 11:05:00;;;;;;;;;;;;;;;;;;5025290;28;804;-59
2021/03/29 11:07:25;;;;;;;;;;;;;;;;;;5026449;28;887;-60
2021/03/29 11:09:51;;;;;;;;;;;;;;;;;;5027347;28;871;-59
2021/03/29 11:12:16;;;;;;;;;;;;;;;;;;5026605;28;871;-59
2021/03/29 11:14:41;;;;;;;;;;;;;;;;;;5026986;28;910;-58
2021/03/29 11:17:09;;;;;;;;;;;;;;;;;;5026579;28;1898;-58
2021/03/29 11:19:34;;;;;;;;;;;;;;;;;;5026827;28;998;-59
2021/03/29 11:22:00;;;;;;;;;;;;;;;;;;5027484;28;835;-59
2021/03/29 11:24:25;;;;;;;;;;;;;;;;;;5027101;28;882;-59
2021/03/29 11:26:50;;;;;;;;;;;;;;;;;;5026998;28;903;-59
2021/03/29 11:29:16;;;;;;;;;;;;;;;;;;5027838;28;820;-59
2021/03/29 11:31:42;;;;;;;;;;;;;;;;;;5027159;28;877;-58
2021/03/29 11:34:08;;;;;;;;;;;;;;;;;;5029359;28;1222;-59
2021/03/29 11:36:34;;;;;;;;;;;;;;;;;;5028061;28;1968;-58
2021/03/29 11:39:00;;;;;;;;;;;;;;;;;;5030806;28;1435;-58
2021/03/29 11:41:25;;;;;;;;;;;;;;;;;;5030313;28;856;-59
2021/03/29 11:43:51;;;;;;;;;;;;;;;;;;5030533;28;934;-58
2021/03/29 11:46:16;;;;;;;;;;;;;;;;;;5031711;28;843;-58
2021/03/29 11:48:42;;;;;;;;;;;;;;;;;;5031007;28;899;-58
2021/03/29 11:51:07;;;;;;;;;;;;;;;;;;5030628;28;891;-58
2021/03/29 11:53:34;;;;;;;;;;;;;;;;;;5030499;28;1154;-58
2021/03/29 11:55:59;;;;;;;;;;;;;;;;;;5030888;28;1886;-59
2021/03/29 11:58:25;;;;;;;;;;;;;;;;;;5030041;28;973;-58
2021/03/29 12:03:46;;;;;;;;;;;;;;;;;;5029734;28;1264;-59
2021/03/29 12:06:20;;;;;;;;;;;;;;;;;;5029747;28;847;-58
2021/03/29 12:13:57;;;;;;;;;;;;;;;;;;5049911;28;687;-59
2021/03/29 12:16:25;;;;;;;;;;;;;;;;;;5050077;28;1902;-59
2021/03/29 12:18:57;;;;;;;;;;;;;;;;;;5050168;28;862;-59
2021/03/29 12:21:27;;;;;;;;;;;;;;;;;;5050319;28;824;-58
2021/03/29 12:23:57;;;;;;;;;;;;;;;;;;5049672;28;871;-59
2021/03/29 12:26:23;;;;;;;;;;;;;;;;;;5049526;28;804;-59
2021/03/29 12:28:50;;;;;;;;;;;;;;;;;;5050627;28;879;-59
2021/03/29 12:31:16;;;;;;;;;;;;;;;;;;5049981;28;840;-59
2021/03/29 12:33:42;;;;;;;;;;;;;;;;;;5049125;28;856;-59
2021/03/29 12:36:08;;;;;;;;;;;;;;;;;;5049453;28;1890;-59
2021/03/29 12:38:35;;;;;;;;;;;;;;;;;;5029574;28;1360;-59
2021/03/29 12:41:03;;;;;;;;;;;;;;;;;;5029197;28;860;-60
2021/03/29 12:43:44;;;;;;;;;;;;;;;;;;5029517;28;956;-59
2021/03/29 12:46:12;;;;;;;;;;;;;;;;;;5029839;28;924;-59
2021/03/29 12:48:38;;;;;;;;;;;;;;;;;;5028684;28;812;-59
2021/03/29 12:51:04;;;;;;;;;;;;;;;;;;5028966;28;976;-60
2021/03/29 12:53:30;;;;;;;;;;;;;;;;;;5029337;28;1096;-59
2021/03/29 12:55:56;;;;;;;;;;;;;;;;;;5047370;28;1965;-59
2021/03/29 12:58:21;;;;;;;;;;;;;;;;;;5031018;28;844;-59
2021/03/29 13:00:48;;;;;;;;;;;;;;;;;;5049387;28;871;-59
2021/03/29 13:03:14;;;;;;;;;;;;;;;;;;5049948;28;853;-61
2021/03/29 13:05:50;;;;;;;;;;;;;;;;;;5049179;28;882;-60
2021/03/29 13:08:19;;;;;;;;;;;;;;;;;;5029915;28;1233;-59
2021/03/29 13:13:12;;;;;;;;;;;;;;;;;;5029262;28;835;-60
2021/03/29 13:15:37;;;;;;;;;;;;;;;;;;5029077;28;1897;-61
2021/03/29 13:18:03;;;;;;;;;;;;;;;;;;5028882;28;816;-60
2021/03/29 13:20:28;;;;;;;;;;;;;;;;;;5028980;28;835;-61
2021/03/29 13:22:54;;;;;;;;;;;;;;;;;;5028310;28;836;-60
2021/03/29 13:25:21;;;;;;;;;;;;;;;;;;5029225;28;823;-61
2021/03/29 13:27:46;;;;;;;;;;;;;;;;;;5029893;28;840;-62
2021/03/29 13:30:13;;;;;;;;;;;;;;;;;;5028615;28;827;-60
2021/03/29 13:32:39;;;;;;;;;;;;;;;;;;5028088;28;851;-60
2021/03/29 13:35:05;;;;;;;;;;;;;;;;;;5028169;28;1910;-61
2021/03/29 13:37:31;;;;;;;;;;;;;;;;;;5027718;28;1388;-61
2021/03/29 13:39:57;;;;;;;;;;;;;;;;;;5028291;28;878;-61
2021/03/29 13:42:23;;;;;;;;;;;;;;;;;;5028151;28;678;-61
2021/03/29 13:44:48;;;;;;;;;;;;;;;;;;5029082;28;863;-62
2021/03/29 13:47:14;;;;;;;;;;;;;;;;;;5028520;28;906;-61
2021/03/29 13:49:40;;;;;;;;;;;;;;;;;;5028589;28;831;-60
2021/03/29 13:52:09;;;;;;;;;;;;;;;;;;5028751;28;958;-60
2021/03/29 13:54:37;;;;;;;;;;;;;;;;;;5027984;28;1008;-60
2021/03/29 13:57:06;;;;;;;;;;;;;;;;;;5028159;28;1992;-60
2021/03/29 13:59:32;;;;;;;;;;;;;;;;;;5026855;28;1028;-60
2021/03/29 14:01:57;;;;;;;;;;;;;;;;;;5027823;28;859;-59
2021/03/29 14:04:23;;;;;;;;;;;;;;;;;;5028149;28;907;-59
2021/03/29 14:06:48;;;;;;;;;;;;;;;;;;5018066;28;1436;-59
2021/03/29 14:09:15;;;;;;;;;;;;;;;;;;5008449;28;750;-59
2021/03/29 14:11:41;;;;;;;;;;;;;;;;;;5008099;28;844;-59
2021/03/29 14:14:07;;;;;;;;;;;;;;;;;;5008359;28;863;-59
2021/03/29 14:16:32;;;;;;;;;;;;;;;;;;5008522;28;1906;-59
2021/03/29 14:19:00;;;;;;;;;;;;;;;;;;5008374;28;824;-59
2021/03/29 14:21:26;;;;;;;;;;;;;;;;;;5008154;28;872;-60
2021/03/29 14:23:52;;;;;;;;;;;;;;;;;;5008191;28;824;-60
2021/03/29 14:26:17;;;;;;;;;;;;;;;;;;5009031;28;1618;-61
2021/03/29 14:28:42;;;;;;;;;;;;;;;;;;5008223;28;851;-61
2021/03/29 14:31:08;;;;;;;;;;;;;;;;;;5008024;28;930;-60
2021/03/29 14:33:35;;;;;;;;;;;;;;;;;;5008751;28;816;-59
2021/03/29 14:36:23;;;;;;;;;;;;;;;;;;5007526;28;1922;-60
2021/03/29 14:46:51;;;;;;;;;;;;;;;;;;5007684;28;702;-60
2021/03/29 14:49:16;;;;;;;;;;;;;;;;;;5008929;28;855;-59
2021/03/29 14:51:42;;;;;;;;;;;;;;;;;;5007751;28;878;-60
2021/03/29 14:54:07;;;;;;;;;;;;;;;;;;5019120;28;1021;-60
2021/03/29 14:56:32;;;;;;;;;;;;;;;;;;5026862;28;1895;-60
2021/03/29 14:58:58;;;;;;;;;;;;;;;;;;5027289;28;929;-60
2021/03/29 15:01:24;;;;;;;;;;;;;;;;;;5001992;28;1824;-60
2021/03/29 15:03:52;;;;;;;;;;;;;;;;;;5007395;28;1164;-60
2021/03/29 15:06:29;;;;;;;;;;;;;;;;;;5017773;28;1129;-61
2021/03/29 15:08:54;;;;;;;;;;;;;;;;;;5021199;28;1200;-59
2021/03/29 15:11:20;;;;;;;;;;;;;;;;;;5026709;28;1242;-60
2021/03/29 15:13:46;;;;;;;;;;;;;;;;;;5023094;28;1155;-60
2021/03/29 15:16:11;;;;;;;;;;;;;;;;;;5022809;28;1975;-60
2021/03/29 15:18:37;;;;;;;;;;;;;;;;;;5016304;28;1132;-60
2021/03/29 15:21:03;;;;;;;;;;;;;;;;;;5021956;28;1191;-60
2021/03/29 15:23:28;;;;;;;;;;;;;;;;;;5021781;28;1195;-60
2021/03/29 15:25:54;;;;;;;;;;;;;;;;;;5010744;28;831;-60
2021/03/29 15:28:21;;;;;;;;;;;;;;;;;;5012005;28;1191;-60
2021/03/29 15:30:47;;;;;;;;;;;;;;;;;;5013964;28;1204;-60
2021/03/29 15:33:12;;;;;;;;;;;;;;;;;;5010743;28;1234;-61
2021/03/29 15:35:37;;;;;;;;;;;;;;;;;;5018730;28;1898;-61
2021/03/29 15:38:03;;;;;;;;;;;;;;;;;;5017156;28;1227;-61
2021/03/29 15:40:28;;;;;;;;;;;;;;;;;;5028618;28;1207;-60
2021/03/29 15:42:53;;;;;;;;;;;;;;;;;;5030854;28;891;-60
2021/03/29 15:45:19;;;;;;;;;;;;;;;;;;5031638;28;855;-61
2021/03/29 15:47:44;;;;;;;;;;;;;;;;;;5026164;28;1223;-60
2021/03/29 15:50:10;;;;;;;;;;;;;;;;;;5013331;28;1281;-61
2021/03/29 15:52:35;;;;;;;;;;;;;;;;;;5012028;28;1218;-59
2021/03/29 15:55:01;;;;;;;;;;;;;;;;;;5029351;28;1206;-61
2021/03/29 15:57:35;;;;;;;;;;;;;;;;;;5030650;28;1882;-61
2021/03/29 16:00:01;;;;;;;;;;;;;;;;;;5028091;28;1071;-60
2021/03/29 16:02:28;;;;;;;;;;;;;;;;;;5029729;28;855;-60
2021/03/29 16:04:57;;;;;;;;;;;;;;;;;;5012940;28;1234;-60
2021/03/29 16:07:23;;;;;;;;;;;;;;;;;;5033734;28;1256;-60
2021/03/29 16:09:48;;;;;;;;;;;;;;;;;;5039876;28;1265;-59
2021/03/29 16:12:14;;;;;;;;;;;;;;;;;;5029727;28;906;-60
2021/03/29 16:14:39;;;;;;;;;;;;;;;;;;5029635;28;819;-60
2021/03/29 16:17:05;;;;;;;;;;;;;;;;;;5028821;28;1977;-60
2021/03/29 16:19:30;;;;;;;;;;;;;;;;;;5028966;28;863;-59
2021/03/29 16:21:57;;;;;;;;;;;;;;;;;;5029242;28;890;-60
2021/03/29 16:24:23;;;;;;;;;;;;;;;;;;5030044;28;834;-60
2021/03/29 16:26:54;;;;;;;;;;;;;;;;;;5030371;28;830;-59
2021/03/29 16:29:20;;;;;;;;;;;;;;;;;;5029840;28;917;-61
2021/03/29 16:31:45;;;;;;;;;;;;;;;;;;5041314;28;1183;-61
2021/03/29 16:34:11;;;;;;;;;;;;;;;;;;5049570;28;890;-61
2021/03/29 16:36:36;;;;;;;;;;;;;;;;;;5049000;28;1965;-60
2021/03/29 16:39:02;;;;;;;;;;;;;;;;;;5049221;28;890;-61
2021/03/29 16:41:27;;;;;;;;;;;;;;;;;;5048368;28;1286;-60
2021/03/29 16:43:53;;;;;;;;;;;;;;;;;;5033562;28;1268;-59
2021/03/29 16:46:18;;;;;;;;;;;;;;;;;;5033340;28;1253;-60
2021/03/29 16:48:43;;;;;;;;;;;;;;;;;;5038041;28;1250;-59
2021/03/29 16:51:09;;;;;;;;;;;;;;;;;;5038329;28;1130;-59
2021/03/29 16:53:34;;;;;;;;;;;;;;;;;;5027442;28;1589;-60
2021/03/29 16:56:00;;;;;;;;;;;;;;;;;;5025144;28;1906;-60
2021/03/29 16:58:25;;;;;;;;;;;;;;;;;;5028564;28;887;-60
2021/03/29 17:00:50;;;;;;;;;;;;;;;;;;5028599;28;811;-60
2021/03/29 17:03:16;;;;;;;;;;;;;;;;;;5029446;28;997;-60
2021/03/29 17:05:41;;;;;;;;;;;;;;;;;;5028789;28;867;-59
2021/03/29 17:08:08;;;;;;;;;;;;;;;;;;5029296;28;871;-61
2021/03/29 17:10:33;;;;;;;;;;;;;;;;;;5028985;28;828;-60
2021/03/29 17:12:59;;;;;;;;;;;;;;;;;;5025011;28;895;-59
2021/03/29 17:15:26;;;;;;;;;;;;;;;;;;5008161;28;1981;-60
2021/03/29 17:17:52;;;;;;;;;;;;;;;;;;5019647;28;1685;-60
2021/03/29 17:20:17;;;;;;;;;;;;;;;;;;5037907;28;1501;-59
2021/03/29 17:22:42;;;;;;;;;;;;;;;;;;5035096;28;1548;-60
2021/03/29 17:25:09;;;;;;;;;;;;;;;;;;5017158;28;887;-60
2021/03/29 17:27:35;;;;;;;;;;;;;;;;;;5028771;28;1254;-61
2021/03/29 17:30:01;;;;;;;;;;;;;;;;;;5028440;28;862;-62
2021/03/29 17:32:26;;;;;;;;;;;;;;;;;;5044446;28;1263;-60